Accueil
METAR-TAF:

METAR-TAF

Aéroports :

Toussus-le-Noble, France

Aéroport de Toussus-le-Noble

latitude: 48-46N, longitude: 002-06E, altitude: 164 m

Observation

Le bulletin a été fait il y a 23 minutes, à 08:30 UTC
Vent 8 kt de nord-ouest, variant entre ouest/nord-ouest et nord
Température 18°C
Humidité 68%
Pression 1021 hPa
Visibilité 10 km ou plus
Quelques nuages à une hauteur de 1700 ft

METAR: LFPN 230830Z AUTO 32008KT 290V360 9999 FEW017 18/12 Q1021 NOSIG

Heure: 10:53 (08:53 UTC)

Prévision

Le bulletin a été fait il y a 3 heures et 53 minutes, à 05:00 UTC
Prévision valable du 23 à 06 UTC au 23 à 15 UTC
Vent 8 kt de nord-ouest
Visibilité 10 km ou plus
pas de nuages en-dessous de 1500 mètres et pas de cumulonimbus.
Probabilité 40% :
Temporairement
du 23 à 06 UTC au 23 à 09 UTC
Visibilité: 4000 m
Nuages fragmentés à une hauteur de 600 ft
brume

TAF: LFPN 230500Z 2306/2315 32008KT CAVOK PROB40 TEMPO 2306/2309 4000 BR BKN006

Observations et prévisions météorologiques de plus de 4000 aéroports (messages METAR et TAF).

Les stations disponibles sont représentées par des disques jaunes et rouges sur la carte.

Passer la souris dessus pour voir le nom de la station.

Cliquer dessus pour voir les observations et prévisions météorologiques.

Pour changer de carte: cliquez sur les boutons verts avec une croix noire pour zoomer, sur le bouton vert avec un tiret pour effectuer un zoom arrière, ou sur les flèches vertes pour les cartes adjacentes.


METAR-TAF: